Time;durP1;ratioP1;P1;durP2;ratioP2;P2;SDS_P1;SDS_P2;PMS_P1;PMS_P2;Temp;Humidity;BMP_temperature;BMP_pressure;BME280_temperature;BME280_humidity;BME280_pressure;Samples;Min_cycle;Max_cycle;Signal;HPM_P1;HPM_P2
2023/09/30 00:01:22;;;;;;;5.20;0.83;;;15.00;99.90;;;;;;6209859;23;20162;-91
2023/09/30 00:03:48;;;;;;;0.80;0.80;;;15.00;99.90;;;;;;6185925;23;20261;-91
2023/09/30 00:06:14;;;;;;;14.43;0.57;;;15.00;99.90;;;;;;6209999;23;20201;-91
2023/09/30 00:08:41;;;;;;;1.23;1.00;;;15.00;99.90;;;;;;6210436;23;20565;-94
2023/09/30 00:11:07;;;;;;;2.40;0.70;;;15.00;99.90;;;;;;6184933;23;20233;-94
2023/09/30 00:13:34;;;;;;;5.63;1.07;;;15.00;99.90;;;;;;6184646;23;20229;-93
2023/09/30 00:15:59;;;;;;;2.30;0.47;;;15.00;99.90;;;;;;6235916;23;20195;-91
2023/09/30 00:18:25;;;;;;;0.40;0.40;;;15.00;99.90;;;;;;6209332;23;20202;-93
2023/09/30 00:20:51;;;;;;;1.20;0.70;;;15.00;99.90;;;;;;6159887;23;20206;-93
2023/09/30 00:23:18;;;;;;;1.60;1.10;;;14.90;99.90;;;;;;6185262;23;20221;-92
2023/09/30 00:25:44;;;;;;;1.70;1.60;;;14.90;99.90;;;;;;6210824;23;20194;-93
2023/09/30 00:28:10;;;;;;;2.97;0.80;;;14.90;99.90;;;;;;6160452;23;20181;-91
2023/09/30 00:30:36;;;;;;;1.37;0.87;;;15.00;99.90;;;;;;6185202;23;20336;-93
2023/09/30 00:33:02;;;;;;;8.60;1.03;;;15.00;99.90;;;;;;6159495;23;20277;-92
2023/09/30 00:35:28;;;;;;;4.87;0.67;;;15.00;99.90;;;;;;6184356;23;20280;-92
2023/09/30 00:37:54;;;;;;;2.40;1.20;;;15.00;99.90;;;;;;6159728;23;20225;-92
2023/09/30 00:40:19;;;;;;;2.00;0.80;;;15.00;99.90;;;;;;6159447;23;20558;-91
2023/09/30 00:42:46;;;;;;;1.77;0.73;;;15.00;99.90;;;;;;6184812;23;20587;-92
2023/09/30 00:45:12;;;;;;;4.77;0.77;;;15.00;99.90;;;;;;6184550;23;20206;-90
2023/09/30 00:47:38;;;;;;;0.77;0.37;;;15.00;99.90;;;;;;6159280;23;20208;-92
2023/09/30 00:50:07;;;;;;;1.20;0.50;;;14.90;99.90;;;;;;6185425;23;20281;-91
2023/09/30 00:52:34;;;;;;;2.90;2.47;;;14.90;99.90;;;;;;6185156;23;20537;-92
2023/09/30 00:55:01;;;;;;;0.60;0.60;;;14.90;99.90;;;;;;6210790;23;20167;-92
2023/09/30 00:57:27;;;;;;;2.60;1.20;;;14.90;99.90;;;;;;6185268;23;20305;-92
2023/09/30 00:59:53;;;;;;;10.67;0.80;;;14.80;99.90;;;;;;6184619;23;20222;-92
2023/09/30 01:02:19;;;;;;;0.40;0.40;;;14.70;99.90;;;;;;6159643;23;20194;-91
2023/09/30 01:04:45;;;;;;;5.27;0.80;;;14.50;99.90;;;;;;6159516;23;20189;-92
2023/09/30 01:07:11;;;;;;;0.47;0.47;;;14.30;99.90;;;;;;6159831;23;20190;-92
2023/09/30 01:09:37;;;;;;;0.73;0.73;;;14.20;99.90;;;;;;6160512;23;20161;-94
2023/09/30 01:12:04;;;;;;;5.00;2.20;;;14.20;99.90;;;;;;6184044;23;20210;-94
2023/09/30 01:14:43;;;;;;;1.07;0.60;;;14.10;99.90;;;;;;6160467;23;20206;-93
2023/09/30 01:17:11;;;;;;;1.57;0.87;;;14.00;99.90;;;;;;6187675;23;20198;-94
2023/09/30 01:19:37;;;;;;;4.40;0.90;;;13.90;99.90;;;;;;6186157;23;20201;-92
2023/09/30 01:22:05;;;;;;;1.63;0.43;;;13.80;99.90;;;;;;6237009;23;20167;-94
2023/09/30 01:24:37;;;;;;;7.07;1.10;;;13.80;99.90;;;;;;6162337;23;20229;-93
2023/09/30 01:27:03;;;;;;;3.97;0.70;;;13.80;99.90;;;;;;6208869;23;20198;-93
2023/09/30 01:29:29;;;;;;;2.03;0.80;;;13.80;99.90;;;;;;6160244;23;20198;-93
2023/09/30 01:31:55;;;;;;;2.60;1.00;;;13.80;99.90;;;;;;6159566;23;20665;-94
2023/09/30 01:34:21;;;;;;;3.80;0.83;;;13.90;99.90;;;;;;6184580;23;20170;-93
2023/09/30 01:36:47;;;;;;;4.33;1.37;;;13.90;99.90;;;;;;6184747;23;20265;-93
2023/09/30 01:39:13;;;;;;;2.43;0.90;;;13.90;99.90;;;;;;6159347;23;20206;-93
2023/09/30 01:41:39;;;;;;;1.07;0.50;;;14.00;99.90;;;;;;6185118;23;20193;-93
2023/09/30 01:44:06;;;;;;;2.23;0.87;;;13.90;99.90;;;;;;6184587;23;20201;-92
2023/09/30 01:46:32;;;;;;;3.30;0.97;;;13.90;99.90;;;;;;6235002;23;20202;-92
2023/09/30 01:48:57;;;;;;;7.10;1.10;;;13.90;99.90;;;;;;6161126;23;20155;-94
2023/09/30 01:51:23;;;;;;;10.60;1.10;;;13.90;99.90;;;;;;6159390;23;20527;-93
2023/09/30 01:53:50;;;;;;;1.80;1.13;;;13.90;99.90;;;;;;6160384;23;20267;-92
2023/09/30 01:56:16;;;;;;;0.40;0.40;;;13.80;99.90;;;;;;6159364;23;20200;-93
2023/09/30 01:58:42;;;;;;;0.60;0.60;;;13.80;99.90;;;;;;6159122;23;20205;-92
2023/09/30 02:01:08;;;;;;;14.67;1.23;;;13.80;99.90;;;;;;6185168;23;20216;-93
2023/09/30 02:03:34;;;;;;;4.17;0.67;;;13.80;99.90;;;;;;6208767;23;20650;-93
2023/09/30 02:06:00;;;;;;;0.87;0.57;;;13.80;99.90;;;;;;6184876;23;20228;-91
2023/09/30 02:08:26;;;;;;;3.07;0.53;;;13.90;99.90;;;;;;6185059;23;20204;-93
2023/09/30 02:10:52;;;;;;;1.23;0.70;;;13.90;99.90;;;;;;6184634;23;20308;-93
2023/09/30 02:13:18;;;;;;;5.03;1.27;;;13.80;99.90;;;;;;6161123;23;20565;-93
2023/09/30 02:15:44;;;;;;;1.77;0.80;;;13.90;99.90;;;;;;6212117;23;20521;-94
2023/09/30 02:18:10;;;;;;;4.20;0.67;;;13.80;99.90;;;;;;6186318;23;20213;-92
2023/09/30 02:20:40;;;;;;;1.13;0.70;;;13.90;99.90;;;;;;6161651;23;20247;-93
2023/09/30 02:23:13;;;;;;;5.03;0.73;;;13.80;99.90;;;;;;6186338;23;20281;-93
2023/09/30 02:25:39;;;;;;;3.23;0.87;;;13.80;99.90;;;;;;6210951;23;20247;-93
2023/09/30 02:28:08;;;;;;;1.03;0.47;;;13.80;99.90;;;;;;6212254;23;20170;-93
2023/09/30 02:30:33;;;;;;;2.20;1.00;;;13.80;99.90;;;;;;6186701;23;20209;-94
2023/09/30 02:32:59;;;;;;;0.47;0.47;;;13.70;99.90;;;;;;6161150;23;20201;-92
2023/09/30 02:35:26;;;;;;;5.20;1.43;;;13.70;99.90;;;;;;6162118;23;20193;-92
2023/09/30 02:37:54;;;;;;;2.43;0.70;;;13.70;99.90;;;;;;6210909;23;20707;-93
2023/09/30 02:40:20;;;;;;;7.47;1.93;;;13.60;99.90;;;;;;6186532;23;20163;-94
2023/09/30 02:42:48;;;;;;;2.70;0.60;;;13.60;99.90;;;;;;6211778;23;20161;-94
2023/09/30 02:45:17;;;;;;;2.00;0.97;;;13.60;99.90;;;;;;6162288;23;20201;-92
2023/09/30 02:47:43;;;;;;;0.60;0.50;;;13.60;99.90;;;;;;6185928;23;20198;-94
2023/09/30 02:50:13;;;;;;;1.83;0.80;;;13.50;99.90;;;;;;6161180;23;20290;-92
2023/09/30 02:52:43;;;;;;;7.03;0.90;;;13.50;99.90;;;;;;6186283;23;20300;-92
2023/09/30 02:55:10;;;;;;;3.30;0.70;;;13.40;99.90;;;;;;6211462;23;20162;-93
2023/09/30 02:57:36;;;;;;;1.07;1.00;;;13.40;99.90;;;;;;6235817;23;20276;-91
2023/09/30 03:00:20;;;;;;;1.27;0.97;;;13.40;99.90;;;;;;6212118;23;20643;-92
2023/09/30 03:02:46;;;;;;;4.07;1.97;;;13.40;99.90;;;;;;6189753;23;20678;-92
2023/09/30 03:05:13;;;;;;;1.00;0.70;;;13.30;99.90;;;;;;6161238;23;20197;-93
2023/09/30 03:07:41;;;;;;;1.27;0.50;;;13.30;99.90;;;;;;6161516;23;20218;-93
2023/09/30 03:10:08;;;;;;;0.70;0.60;;;13.30;99.90;;;;;;6163263;23;20576;-93
2023/09/30 03:12:35;;;;;;;2.53;0.97;;;13.30;99.90;;;;;;6161815;23;20635;-91
2023/09/30 03:15:04;;;;;;;8.80;1.93;;;13.30;99.90;;;;;;6160821;23;20213;-91
2023/09/30 03:17:30;;;;;;;4.03;1.17;;;13.30;99.90;;;;;;6162518;23;20197;-91
2023/09/30 03:19:57;;;;;;;1.63;0.63;;;13.30;99.90;;;;;;6210444;23;20261;-91
2023/09/30 03:22:22;;;;;;;4.00;0.87;;;13.30;99.90;;;;;;6161798;23;20159;-91
2023/09/30 03:24:48;;;;;;;1.10;0.80;;;13.30;99.90;;;;;;6211507;23;20160;-92
2023/09/30 03:27:15;;;;;;;2.07;0.83;;;13.40;99.90;;;;;;6185097;23;20240;-92
2023/09/30 03:29:41;;;;;;;2.43;0.77;;;13.40;99.90;;;;;;6161481;23;20197;-93
2023/09/30 03:32:07;;;;;;;1.83;0.87;;;13.40;99.90;;;;;;6186246;23;20198;-92
2023/09/30 03:34:36;;;;;;;4.33;0.97;;;13.40;99.90;;;;;;6185469;23;20190;-91
2023/09/30 03:37:02;;;;;;;2.20;0.93;;;13.30;99.90;;;;;;6186325;23;20168;-90
2023/09/30 03:39:27;;;;;;;5.77;1.40;;;13.30;99.90;;;;;;6186150;23;20222;-93
2023/09/30 03:42:00;;;;;;;3.13;0.90;;;13.30;99.90;;;;;;6160919;23;20197;-92
2023/09/30 03:44:26;;;;;;;0.63;0.60;;;13.30;99.90;;;;;;6162356;23;20213;-91
2023/09/30 03:46:52;;;;;;;5.10;1.40;;;13.20;99.90;;;;;;6160244;23;20518;-92
2023/09/30 03:49:19;;;;;;;1.77;0.83;;;13.10;99.90;;;;;;6211070;23;20212;-91
2023/09/30 03:51:46;;;;;;;8.87;0.83;;;13.10;99.90;;;;;;6186557;23;20619;-92
2023/09/30 03:54:12;;;;;;;0.70;0.70;;;13.10;99.90;;;;;;6185715;23;20201;-90
2023/09/30 03:56:41;;;;;;;0.90;0.90;;;13.10;99.90;;;;;;6185247;23;20252;-91
2023/09/30 03:59:08;;;;;;;0.50;0.50;;;13.10;99.90;;;;;;6210435;23;20202;-92
2023/09/30 04:01:34;;;;;;;0.70;0.70;;;13.10;99.90;;;;;;6160745;23;20674;-92
2023/09/30 04:04:00;;;;;;;2.17;2.00;;;13.10;99.90;;;;;;6186015;23;20186;-92
2023/09/30 04:06:26;;;;;;;1.27;0.97;;;13.10;99.90;;;;;;6160595;23;20204;-92
2023/09/30 04:08:52;;;;;;;1.10;0.87;;;13.10;99.90;;;;;;6159957;23;20240;-93
2023/09/30 04:11:19;;;;;;;11.33;1.40;;;13.10;99.90;;;;;;6184586;23;20233;-92
2023/09/30 04:13:45;;;;;;;5.67;1.03;;;13.20;99.90;;;;;;6161569;23;20194;-93
2023/09/30 04:16:11;;;;;;;4.37;0.77;;;13.20;99.90;;;;;;6185874;23;20170;-91
2023/09/30 04:18:38;;;;;;;2.30;1.43;;;13.10;99.90;;;;;;6186148;23;20182;-92
2023/09/30 04:21:04;;;;;;;2.33;0.70;;;13.10;99.90;;;;;;6161449;23;20636;-92
2023/09/30 04:23:30;;;;;;;1.70;0.50;;;13.10;99.90;;;;;;6185380;23;20194;-92
2023/09/30 04:25:56;;;;;;;1.17;1.00;;;13.10;99.90;;;;;;6185228;23;20197;-92
2023/09/30 04:28:21;;;;;;;0.73;0.60;;;13.10;99.90;;;;;;6160769;23;20249;-93
2023/09/30 04:30:51;;;;;;;1.23;0.80;;;13.10;99.90;;;;;;6186203;23;20653;-92
2023/09/30 04:33:24;;;;;;;3.13;0.50;;;13.10;99.90;;;;;;6161250;23;20507;-92
2023/09/30 04:35:50;;;;;;;2.83;0.90;;;13.20;99.90;;;;;;6186546;23;20218;-92
2023/09/30 04:38:16;;;;;;;1.90;1.10;;;13.20;99.90;;;;;;6184407;23;20198;-92
2023/09/30 04:40:44;;;;;;;0.83;0.60;;;13.30;99.90;;;;;;6210186;23;20240;-93
2023/09/30 04:43:10;;;;;;;4.67;0.90;;;13.30;99.90;;;;;;6186030;23;20867;-92
2023/09/30 04:45:36;;;;;;;21.23;0.83;;;13.30;99.90;;;;;;6235337;23;20210;-92
2023/09/30 04:48:02;;;;;;;0.50;0.40;;;13.30;99.90;;;;;;6159496;23;20201;-93
2023/09/30 04:50:30;;;;;;;1.83;0.53;;;13.30;99.90;;;;;;6160116;23;20193;-93
2023/09/30 04:52:57;;;;;;;2.93;1.00;;;13.30;99.90;;;;;;6160564;23;20348;-91
2023/09/30 04:55:23;;;;;;;1.17;0.53;;;13.30;99.90;;;;;;6160904;23;20501;-91
2023/09/30 04:57:49;;;;;;;2.00;0.60;;;13.30;99.90;;;;;;6184693;23;20186;-92
2023/09/30 05:00:17;;;;;;;0.43;0.43;;;13.30;99.90;;;;;;6209229;23;20193;-92
2023/09/30 05:02:46;;;;;;;0.37;0.33;;;13.30;99.90;;;;;;6185171;23;20256;-92
2023/09/30 05:05:12;;;;;;;0.60;0.57;;;13.30;99.90;;;;;;6209687;23;20952;-93
2023/09/30 05:07:38;;;;;;;1.77;0.50;;;13.30;99.90;;;;;;6184982;23;20205;-92
2023/09/30 05:10:10;;;;;;;0.83;0.83;;;13.20;99.90;;;;;;6160040;23;20177;-91
2023/09/30 05:12:37;;;;;;;0.97;0.90;;;13.20;99.90;;;;;;6210005;23;20181;-93
2023/09/30 05:15:03;;;;;;;1.37;1.33;;;13.10;99.90;;;;;;6160077;23;20292;-92
2023/09/30 05:17:29;;;;;;;9.00;1.07;;;13.00;99.90;;;;;;6159500;23;20201;-91
2023/09/30 05:19:59;;;;;;;2.27;0.97;;;13.00;99.90;;;;;;6159101;23;20204;-91
2023/09/30 05:22:25;;;;;;;2.03;1.00;;;12.90;99.90;;;;;;6209766;23;20533;-93
2023/09/30 05:24:52;;;;;;;3.50;0.90;;;12.80;99.90;;;;;;6160815;23;20185;-92
2023/09/30 05:27:18;;;;;;;1.37;1.37;;;12.80;99.90;;;;;;6184699;23;20193;-93
2023/09/30 05:29:44;;;;;;;1.93;1.07;;;12.80;99.90;;;;;;6159888;23;20198;-92
2023/09/30 05:32:10;;;;;;;0.53;0.53;;;12.80;99.90;;;;;;6184631;23;20941;-93
2023/09/30 05:34:38;;;;;;;2.13;0.60;;;12.80;99.90;;;;;;6185088;23;20193;-92
2023/09/30 05:37:04;;;;;;;3.87;1.37;;;12.90;99.90;;;;;;6161749;23;20161;-91
2023/09/30 05:39:31;;;;;;;3.37;1.10;;;12.90;99.90;;;;;;6184995;23;20210;-90
2023/09/30 05:41:58;;;;;;;0.83;0.30;;;12.80;99.90;;;;;;6185404;23;20194;-91
2023/09/30 05:44:25;;;;;;;2.77;0.70;;;12.80;99.90;;;;;;6185532;23;20194;-91
2023/09/30 05:46:51;;;;;;;22.13;1.50;;;12.70;99.90;;;;;;6160464;23;20248;-92
2023/09/30 05:49:19;;;;;;;3.43;1.30;;;12.70;99.90;;;;;;6209852;23;20158;-91
2023/09/30 05:51:46;;;;;;;0.40;0.40;;;12.70;99.90;;;;;;6210555;23;20162;-93
2023/09/30 05:54:12;;;;;;;0.77;0.57;;;12.70;99.90;;;;;;6210928;23;20725;-91
2023/09/30 05:56:39;;;;;;;2.50;0.90;;;12.70;99.90;;;;;;6209792;23;20254;-89
2023/09/30 05:59:07;;;;;;;4.70;1.30;;;12.80;99.90;;;;;;6210063;23;20225;-91
2023/09/30 06:01:33;;;;;;;2.93;0.73;;;12.90;99.90;;;;;;6159338;23;20526;-90
2023/09/30 06:04:00;;;;;;;6.57;0.87;;;12.90;99.90;;;;;;6184692;23;20192;-94
2023/09/30 06:06:29;;;;;;;1.03;0.87;;;12.90;99.90;;;;;;6159699;23;20216;-88
2023/09/30 06:08:58;;;;;;;2.13;1.00;;;12.90;99.90;;;;;;6159956;23;20205;-89
2023/09/30 06:11:24;;;;;;;0.60;0.60;;;13.00;99.90;;;;;;6159516;23;20229;-89
2023/09/30 06:14:00;;;;;;;1.40;1.30;;;13.10;99.90;;;;;;6183166;23;20264;-90
2023/09/30 06:16:31;;;;;;;2.37;0.93;;;13.10;99.90;;;;;;6183980;23;20149;-87
2023/09/30 06:18:57;;;;;;;2.73;0.70;;;13.20;99.90;;;;;;6185025;23;20170;-88
2023/09/30 06:21:27;;;;;;;1.63;1.13;;;13.30;99.90;;;;;;6233501;23;21147;-89
2023/09/30 06:23:53;;;;;;;1.03;0.77;;;13.50;99.90;;;;;;6209873;23;20209;-88
2023/09/30 06:26:20;;;;;;;3.43;0.87;;;13.70;99.90;;;;;;6183751;23;20194;-90
2023/09/30 06:28:48;;;;;;;0.57;0.57;;;14.00;99.90;;;;;;6160357;23;20200;-86
2023/09/30 06:31:15;;;;;;;3.07;0.90;;;14.40;99.90;;;;;;6158718;23;20166;-89
2023/09/30 06:33:41;;;;;;;4.47;0.73;;;14.70;99.90;;;;;;6159596;23;20591;-87
2023/09/30 06:36:13;;;;;;;1.47;1.27;;;15.00;99.90;;;;;;6183247;23;21047;-88
2023/09/30 06:38:41;;;;;;;0.93;0.50;;;15.20;99.90;;;;;;6183697;23;20198;-88
2023/09/30 06:41:08;;;;;;;1.43;1.23;;;15.20;99.90;;;;;;6183223;23;20198;-87
2023/09/30 06:43:35;;;;;;;1.03;0.80;;;15.40;99.90;;;;;;6183866;23;20259;-89
2023/09/30 06:46:13;;;;;;;4.37;1.33;;;15.60;99.90;;;;;;6210492;23;20226;-92
2023/09/30 06:48:53;;;;;;;5.40;1.10;;;16.00;99.90;;;;;;6173036;23;20186;-93
2023/09/30 06:51:19;;;;;;;0.60;0.50;;;16.30;99.90;;;;;;6189502;23;20275;-90
2023/09/30 06:53:45;;;;;;;4.20;0.67;;;16.60;99.90;;;;;;6184170;23;20162;-91
2023/09/30 06:56:12;;;;;;;2.17;1.00;;;16.60;99.90;;;;;;6158375;23;20690;-90
2023/09/30 06:58:38;;;;;;;4.93;1.43;;;16.30;99.90;;;;;;6233875;23;20228;-90
2023/09/30 07:01:04;;;;;;;0.57;0.53;;;16.20;99.90;;;;;;6158960;23;20243;-90
2023/09/30 07:03:30;;;;;;;5.83;0.60;;;16.00;99.90;;;;;;6160359;23;20829;-91
2023/09/30 07:05:56;;;;;;;3.00;0.60;;;15.90;99.90;;;;;;6209922;23;20193;-91
2023/09/30 07:08:22;;;;;;;4.27;1.07;;;15.90;99.90;;;;;;6185487;23;20224;-90
2023/09/30 07:10:52;;;;;;;4.43;1.23;;;16.10;99.90;;;;;;6160151;23;20206;-89
2023/09/30 07:13:18;;;;;;;1.10;1.00;;;16.30;99.90;;;;;;6185984;23;20192;-91
2023/09/30 07:15:44;;;;;;;1.30;0.80;;;16.20;99.90;;;;;;6160807;23;20591;-91
2023/09/30 07:18:11;;;;;;;5.10;1.10;;;16.10;99.90;;;;;;6185869;23;20728;-90
2023/09/30 07:20:37;;;;;;;4.63;1.90;;;16.10;99.90;;;;;;6160909;23;20247;-88
2023/09/30 07:23:03;;;;;;;2.13;0.73;;;16.20;99.90;;;;;;6210837;23;20213;-90
2023/09/30 07:25:31;;;;;;;7.13;0.97;;;16.60;99.90;;;;;;6184608;23;20162;-91
2023/09/30 07:27:58;;;;;;;1.03;0.73;;;17.30;99.90;;;;;;6186334;23;20583;-88
2023/09/30 07:30:25;;;;;;;1.93;1.80;;;18.20;99.90;;;;;;6185359;23;20205;-88
2023/09/30 07:32:51;;;;;;;1.40;0.80;;;19.10;99.90;;;;;;6184707;23;20247;-89
2023/09/30 07:35:16;;;;;;;1.30;0.83;;;19.70;99.90;;;;;;6160122;23;20202;-90
2023/09/30 07:37:43;;;;;;;0.67;0.67;;;20.50;99.90;;;;;;6210769;23;20267;-89
2023/09/30 07:40:13;;;;;;;4.60;1.27;;;21.10;99.90;;;;;;6185098;23;20158;-91
2023/09/30 07:42:38;;;;;;;1.23;1.00;;;21.70;99.90;;;;;;6186031;23;20193;-89
2023/09/30 07:45:05;;;;;;;3.13;0.93;;;22.30;99.90;;;;;;6184288;23;20189;-90
2023/09/30 07:47:33;;;;;;;0.83;0.70;;;22.40;99.90;;;;;;6209934;23;20190;-89
2023/09/30 07:50:00;;;;;;;1.60;1.00;;;22.70;99.90;;;;;;6185031;23;20627;-89
2023/09/30 07:52:26;;;;;;;3.60;1.10;;;23.20;99.90;;;;;;6184500;23;20162;-90
2023/09/30 07:54:54;;;;;;;3.37;0.97;;;23.50;99.90;;;;;;6185449;23;20182;-89
2023/09/30 07:57:20;;;;;;;6.13;1.20;;;24.00;99.90;;;;;;6184437;23;20201;-88
2023/09/30 07:59:46;;;;;;;1.70;0.90;;;24.40;99.90;;;;;;6160138;23;20210;-89
2023/09/30 08:02:12;;;;;;;1.33;1.03;;;24.30;99.90;;;;;;6159934;23;20194;-86
2023/09/30 08:04:37;;;;;;;9.63;1.40;;;24.60;99.90;;;;;;6185522;23;20662;-89
2023/09/30 08:07:03;;;;;;;7.00;1.20;;;24.80;99.90;;;;;;6184992;23;20169;-88
2023/09/30 08:09:29;;;;;;;3.83;1.55;;;25.20;99.90;;;;;;6184292;23;20295;-88
2023/09/30 08:11:56;;;;;;;4.85;1.80;;;25.80;99.90;;;;;;6159632;23;20210;-86
2023/09/30 08:14:21;;;;;;;2.40;1.20;;;25.80;99.90;;;;;;6209646;23;20201;-88
2023/09/30 08:16:49;;;;;;;1.63;0.93;;;25.90;99.90;;;;;;6158836;23;20645;-88
2023/09/30 08:19:15;;;;;;;4.93;1.02;;;26.20;99.90;;;;;;6159448;23;20186;-88
2023/09/30 08:21:43;;;;;;;3.53;1.85;;;25.80;99.90;;;;;;6184766;23;20639;-87
2023/09/30 08:24:09;;;;;;;2.85;1.30;;;26.00;99.90;;;;;;6159468;23;20193;-90
2023/09/30 08:26:35;;;;;;;3.90;1.65;;;26.40;99.90;;;;;;6150852;23;20270;-89
2023/09/30 08:29:02;;;;;;;0.95;0.88;;;26.60;99.90;;;;;;6184109;23;20583;-87
2023/09/30 08:31:28;;;;;;;5.45;1.52;;;27.10;99.90;;;;;;6159669;23;20158;-88
2023/09/30 08:33:54;;;;;;;3.80;1.45;;;27.20;99.90;;;;;;6155872;23;20228;-89
2023/09/30 08:36:19;;;;;;;1.90;1.10;;;27.40;99.90;;;;;;6183428;23;20221;-89
2023/09/30 08:38:46;;;;;;;4.13;0.95;;;26.60;99.90;;;;;;6184869;23;20209;-90
2023/09/30 08:41:36;;;;;;;1.13;0.98;;;26.80;99.90;;;;;;6159709;23;20520;-89
2023/09/30 08:44:03;;;;;;;1.40;0.73;;;26.80;99.90;;;;;;6207806;23;20251;-89
2023/09/30 08:46:33;;;;;;;6.30;0.82;;;26.20;99.90;;;;;;6159839;23;20185;-89
2023/09/30 08:49:03;;;;;;;4.30;1.00;;;26.10;99.90;;;;;;6184088;23;20166;-89
2023/09/30 08:51:30;;;;;;;1.02;0.60;;;24.50;99.90;;;;;;6209155;23;20197;-88
2023/09/30 08:53:56;;;;;;;2.75;1.00;;;22.70;99.90;;;;;;6158385;23;20193;-88
2023/09/30 08:56:32;;;;;;;2.47;0.70;;;21.50;99.90;;;;;;6209135;23;20701;-89
2023/09/30 08:59:00;;;;;;;2.40;0.70;;;20.90;99.90;;;;;;6209090;23;20225;-91
2023/09/30 09:01:30;;;;;;;0.95;0.57;;;20.60;99.90;;;;;;6208461;23;20612;-85
2023/09/30 09:03:56;;;;;;;5.55;0.77;;;20.50;99.90;;;;;;6184012;23;20185;-90
2023/09/30 09:06:24;;;;;;;5.70;1.20;;;20.30;99.90;;;;;;6183735;23;20204;-91
2023/09/30 09:08:50;;;;;;;0.85;0.85;;;19.90;99.90;;;;;;6210893;23;20247;-91
2023/09/30 09:11:17;;;;;;;1.30;0.67;;;20.10;99.90;;;;;;6184202;23;20233;-89
2023/09/30 09:13:49;;;;;;;1.43;1.20;;;20.30;99.90;;;;;;6209808;23;20243;-91
2023/09/30 09:16:18;;;;;;;2.33;0.73;;;20.00;99.90;;;;;;6209784;23;20154;-90
2023/09/30 09:18:44;;;;;;;0.73;0.60;;;20.10;99.90;;;;;;6185714;23;20178;-89
2023/09/30 09:21:15;;;;;;;3.50;1.90;;;20.00;99.90;;;;;;6184893;23;20643;-92
2023/09/30 09:23:47;;;;;;;3.43;0.93;;;19.90;99.90;;;;;;6209402;23;20193;-90
2023/09/30 09:26:24;;;;;;;2.97;0.80;;;20.20;99.90;;;;;;6208730;23;20658;-91
2023/09/30 09:28:55;;;;;;;2.20;0.53;;;20.10;99.90;;;;;;6209515;23;20194;-89
2023/09/30 09:31:26;;;;;;;3.00;0.70;;;20.00;99.90;;;;;;6209124;23;20151;-91
2023/09/30 09:33:53;;;;;;;2.63;1.13;;;19.90;99.90;;;;;;6185567;23;20255;-91
2023/09/30 09:36:19;;;;;;;3.90;1.13;;;20.10;99.90;;;;;;6208686;23;20608;-89
2023/09/30 09:38:54;;;;;;;4.87;0.73;;;20.20;99.90;;;;;;6183636;23;20194;-89
2023/09/30 09:41:20;;;;;;;0.90;0.77;;;20.30;99.90;;;;;;6160243;23;20197;-90
2023/09/30 09:43:50;;;;;;;3.97;1.03;;;20.50;99.90;;;;;;6159442;23;20946;-91
2023/09/30 09:46:17;;;;;;;3.00;1.00;;;20.70;99.90;;;;;;6184708;23;20184;-90
2023/09/30 09:48:46;;;;;;;2.70;0.70;;;21.80;99.90;;;;;;6209945;23;20189;-90
2023/09/30 09:51:13;;;;;;;2.73;0.80;;;22.20;99.90;;;;;;6184604;23;20226;-90
2023/09/30 09:53:41;;;;;;;2.33;1.42;;;22.20;99.90;;;;;;6209271;23;20202;-88
2023/09/30 09:56:11;;;;;;;0.80;0.65;;;23.10;99.90;;;;;;6209671;23;20531;-89
2023/09/30 09:58:40;;;;;;;2.17;0.73;;;23.90;99.90;;;;;;6184458;23;20201;-87
2023/09/30 10:01:06;;;;;;;4.15;0.70;;;23.50;99.90;;;;;;6185263;23;20162;-88
2023/09/30 10:03:32;;;;;;;2.05;0.90;;;23.30;99.90;;;;;;6185061;23;20296;-89
2023/09/30 10:05:59;;;;;;;1.38;0.70;;;24.00;99.90;;;;;;6211306;23;20197;-89
2023/09/30 10:08:42;;;;;;;5.85;1.08;;;24.10;99.90;;;;;;6160281;23;20606;-90
2023/09/30 10:11:09;;;;;;;1.25;1.15;;;23.80;99.90;;;;;;6209693;23;20225;-88
2023/09/30 10:14:00;;;;;;;3.72;0.70;;;23.90;99.90;;;;;;6210901;23;20285;-87
2023/09/30 10:16:35;;;;;;;3.00;1.40;;;24.50;99.90;;;;;;6187072;23;20608;-89
2023/09/30 10:19:14;;;;;;;1.92;0.70;;;24.40;99.90;;;;;;6235311;23;20300;-89
2023/09/30 10:22:00;;;;;;;4.28;0.82;;;24.60;99.90;;;;;;6235000;23;20220;-87
2023/09/30 10:24:27;;;;;;;5.20;0.82;;;24.40;99.90;;;;;;6188264;23;20202;-90
2023/09/30 10:27:32;;;;;;;2.35;0.98;;;22.90;99.90;;;;;;6234489;23;20197;-90
2023/09/30 10:30:10;;;;;;;1.77;1.10;;;21.90;99.90;;;;;;6149071;23;20203;-90
2023/09/30 10:32:51;;;;;;;2.35;0.70;;;21.40;99.90;;;;;;6200686;23;20201;-87
2023/09/30 10:35:18;;;;;;;2.38;1.25;;;22.10;99.90;;;;;;6234494;23;20674;-87
2023/09/30 10:37:44;;;;;;;0.50;0.50;;;22.20;99.90;;;;;;6185928;23;20273;-88
2023/09/30 10:40:30;;;;;;;1.25;0.75;;;22.50;99.90;;;;;;6186958;23;20154;-86
2023/09/30 10:42:56;;;;;;;3.08;0.98;;;21.70;99.90;;;;;;6213425;23;20147;-87
2023/09/30 10:45:42;;;;;;;4.00;0.90;;;21.90;99.90;;;;;;6236660;23;20232;-90
2023/09/30 10:48:41;;;;;;;3.25;0.95;;;22.20;99.90;;;;;;6236631;23;20284;-87
2023/09/30 10:51:15;;;;;;;1.85;1.40;;;23.20;99.90;;;;;;6236067;23;20625;-89
2023/09/30 10:54:00;;;;;;;3.72;0.70;;;22.80;99.90;;;;;;6236285;23;20603;-90
2023/09/30 10:56:33;;;;;;;1.60;1.20;;;23.20;99.90;;;;;;6211179;23;20197;-89
2023/09/30 10:59:02;;;;;;;2.78;0.70;;;23.50;99.90;;;;;;6211202;23;20228;-86
2023/09/30 11:01:36;;;;;;;2.72;0.73;;;24.40;99.90;;;;;;6211279;23;20319;-89
2023/09/30 11:04:05;;;;;;;0.70;0.70;;;24.30;99.90;;;;;;6188610;23;20170;-91
2023/09/30 11:06:31;;;;;;;3.70;1.00;;;24.80;99.90;;;;;;6186844;23;20271;-91
2023/09/30 11:08:59;;;;;;;3.47;0.98;;;24.40;99.90;;;;;;6211929;23;20196;-89
2023/09/30 11:11:36;;;;;;;0.73;0.70;;;24.30;99.90;;;;;;6213212;23;20206;-90
2023/09/30 11:14:02;;;;;;;6.00;0.80;;;23.60;99.90;;;;;;6212806;23;20526;-90
2023/09/30 11:16:28;;;;;;;0.70;0.70;;;22.90;99.90;;;;;;6162364;23;20952;-90
2023/09/30 11:18:54;;;;;;;1.05;0.93;;;22.60;99.90;;;;;;6187340;23;20178;-88
2023/09/30 11:21:20;;;;;;;2.97;0.95;;;22.60;99.90;;;;;;6186210;23;20512;-91
2023/09/30 11:23:46;;;;;;;0.88;0.60;;;22.20;99.90;;;;;;6186840;23;20280;-92
2023/09/30 11:26:13;;;;;;;2.55;0.75;;;22.60;99.90;;;;;;6186357;23;20713;-89
2023/09/30 11:28:44;;;;;;;3.55;1.10;;;22.80;99.90;;;;;;6187511;23;20273;-91
2023/09/30 11:31:14;;;;;;;8.15;1.35;;;22.40;99.90;;;;;;6186856;23;20147;-89
2023/09/30 11:33:51;;;;;;;1.50;1.00;;;23.00;99.90;;;;;;6188309;23;20486;-90
2023/09/30 11:36:21;;;;;;;2.03;1.10;;;23.50;99.90;;;;;;6211510;23;20194;-92
2023/09/30 11:38:49;;;;;;;0.98;0.77;;;23.10;99.90;;;;;;6210920;23;20202;-89
2023/09/30 11:41:17;;;;;;;1.63;0.70;;;22.80;99.90;;;;;;6211289;23;21088;-91
2023/09/30 11:44:04;;;;;;;2.20;1.15;;;21.60;99.90;;;;;;6187528;23;20220;-91
2023/09/30 11:46:33;;;;;;;2.90;0.70;;;21.00;99.90;;;;;;6210986;23;20200;-88
2023/09/30 11:49:04;;;;;;;2.20;0.68;;;21.50;99.90;;;;;;6210918;23;20185;-89
2023/09/30 11:51:42;;;;;;;1.90;1.00;;;21.70;99.90;;;;;;6211484;23;20198;-88
2023/09/30 11:54:10;;;;;;;3.20;1.00;;;21.50;99.90;;;;;;6211087;23;20611;-90
2023/09/30 11:56:36;;;;;;;0.77;0.70;;;21.00;99.90;;;;;;6211146;23;20202;-88
2023/09/30 11:59:04;;;;;;;5.18;0.88;;;20.50;99.90;;;;;;6187674;23;20216;-92
2023/09/30 12:01:32;;;;;;;1.10;0.98;;;20.70;99.90;;;;;;6187419;23;20162;-88
2023/09/30 12:03:58;;;;;;;3.28;0.93;;;21.10;99.90;;;;;;6213282;23;20186;-91
2023/09/30 12:06:24;;;;;;;2.45;0.77;;;21.20;99.90;;;;;;6188151;23;20220;-90
2023/09/30 12:08:51;;;;;;;2.15;0.90;;;21.60;99.90;;;;;;6187257;23;20495;-90
2023/09/30 12:11:22;;;;;;;3.05;0.75;;;21.20;99.90;;;;;;6161970;23;20206;-87
2023/09/30 12:13:48;;;;;;;1.90;0.60;;;20.90;99.90;;;;;;6237527;23;20201;-92
2023/09/30 12:16:15;;;;;;;1.20;0.65;;;20.40;99.90;;;;;;6186040;23;20247;-89
2023/09/30 12:18:41;;;;;;;3.88;0.73;;;20.10;99.90;;;;;;6237060;23;20190;-91
2023/09/30 12:21:10;;;;;;;0.90;0.68;;;19.90;99.90;;;;;;6161920;23;20200;-87
2023/09/30 12:23:36;;;;;;;5.23;0.97;;;20.20;99.90;;;;;;6210948;23;20197;-89
2023/09/30 12:26:06;;;;;;;0.88;0.82;;;20.40;99.90;;;;;;6186828;23;20293;-89
2023/09/30 12:28:33;;;;;;;1.08;0.60;;;20.60;99.90;;;;;;6210753;23;20269;-95
2023/09/30 12:31:02;;;;;;;4.80;2.05;;;20.50;99.90;;;;;;6186718;23;20188;-89
2023/09/30 12:33:28;;;;;;;4.23;1.00;;;20.20;99.90;;;;;;6161465;23;20640;-91
2023/09/30 12:35:54;;;;;;;3.30;0.83;;;20.30;99.90;;;;;;6211271;23;20200;-87
2023/09/30 12:38:20;;;;;;;1.53;0.70;;;20.40;99.90;;;;;;6161107;23;20201;-90
2023/09/30 12:40:46;;;;;;;2.10;0.70;;;20.60;99.90;;;;;;6162285;23;20189;-89
2023/09/30 12:43:11;;;;;;;2.33;1.17;;;20.50;99.90;;;;;;6186055;23;20767;-87
2023/09/30 12:45:40;;;;;;;4.32;1.05;;;20.80;99.90;;;;;;6161707;23;20209;-89
2023/09/30 12:48:07;;;;;;;2.10;1.13;;;20.90;99.90;;;;;;6161751;23;20209;-87
2023/09/30 12:50:32;;;;;;;3.90;0.93;;;21.30;99.90;;;;;;6185083;23;20507;-88